Time;durP1;ratioP1;P1;durP2;ratioP2;P2;SDS_P1;SDS_P2;PMS_P1;PMS_P2;Temp;Humidity;BMP_temperature;BMP_pressure;BME280_temperature;BME280_humidity;BME280_pressure;Samples;Min_cycle;Max_cycle;Signal;HPM_P1;HPM_P2
2022/10/05 00:02:18;;;;;;;7.87;2.98;;;;;;;10.34;79.72;99577.45;1767900;81;21022;-44
2022/10/05 00:04:48;;;;;;;4.87;3.40;;;;;;;10.36;79.49;99579.83;1767997;80;21004;-44
2022/10/05 00:07:18;;;;;;;5.10;2.95;;;;;;;10.34;79.49;99583.44;1767750;81;21465;-44
2022/10/05 00:09:53;;;;;;;;;;;;;;;10.32;79.40;99587.06;1770312;81;20930;-44
2022/10/05 00:12:20;;;;;;;5.75;2.58;;;;;;;10.34;79.15;99586.16;1767891;81;20501;-44
2022/10/05 00:14:49;;;;;;;7.28;2.98;;;;;;;10.26;79.34;99583.83;1767608;81;21041;-44
2022/10/05 00:17:20;;;;;;;3.98;2.87;;;;;;;10.24;79.22;99589.40;1768198;81;21028;-44
2022/10/05 00:19:51;;;;;;;7.15;3.10;;;;;;;10.19;79.31;99592.38;1767884;81;21238;-44
2022/10/05 00:22:25;;;;;;;4.30;2.62;;;;;;;10.18;79.33;99599.71;1767587;80;20925;-44
2022/10/05 00:24:56;;;;;;;4.28;3.00;;;;;;;10.20;79.05;99600.72;1767811;80;20986;-44
2022/10/05 00:27:35;;;;;;;5.85;3.08;;;;;;;10.18;78.97;99612.47;1767932;81;20957;-44
2022/10/05 00:30:15;;;;;;;7.35;2.90;;;;;;;10.14;79.07;99608.86;1766362;81;21064;-44
2022/10/05 00:32:44;;;;;;;4.50;2.77;;;;;;;10.08;79.19;99606.19;1768160;80;21022;-44
2022/10/05 00:35:12;;;;;;;5.62;2.80;;;;;;;10.01;79.28;99613.02;1763374;80;21013;-44
2022/10/05 00:37:38;;;;;;;3.05;2.42;;;;;;;10.02;79.16;99613.81;1768188;81;21012;-44
2022/10/05 00:40:26;;;;;;;4.37;2.90;;;;;;;10.06;79.12;99615.25;1767903;80;21025;-44
2022/10/05 00:43:23;;;;;;;4.60;3.00;;;;;;;10.00;79.19;99616.07;1768382;80;21020;-44
2022/10/05 00:46:07;;;;;;;4.70;2.65;;;;;;;9.92;79.29;99615.09;1768078;80;21129;-44
2022/10/05 00:48:57;;;;;;;4.45;2.52;;;;;;;9.88;79.41;99625.61;1763356;81;20934;-44
2022/10/05 00:51:31;;;;;;;6.87;2.58;;;;;;;9.90;79.39;99630.92;1767789;81;21005;-44
2022/10/05 00:54:32;;;;;;;6.85;2.95;;;;;;;9.89;79.35;99638.03;1768116;80;20977;-44
2022/10/05 00:57:30;;;;;;;3.25;2.50;;;;;;;9.82;79.50;99640.56;1767576;80;21286;-44
2022/10/05 01:00:15;;;;;;;6.90;3.00;;;;;;;9.78;79.60;99649.92;1775008;79;22048;-45
2022/10/05 01:02:50;;;;;;;6.62;3.02;;;;;;;9.77;79.62;99657.85;1778236;80;21487;-44
2022/10/05 01:05:58;;;;;;;5.08;3.02;;;;;;;9.74;79.68;99662.59;1778274;80;21584;-44
2022/10/05 01:08:34;;;;;;;6.42;2.40;;;;;;;9.69;79.81;99661.48;1778287;79;20966;-44
2022/10/05 01:11:38;;;;;;;4.95;2.67;;;;;;;9.65;79.86;99666.02;1778264;80;20976;-44
2022/10/05 01:14:48;;;;;;;7.28;3.08;;;;;;;9.67;79.75;99674.59;1778424;79;21230;-44
2022/10/05 01:17:25;;;;;;;3.80;2.70;;;;;;;9.61;79.76;99674.61;1778301;79;20931;-44
2022/10/05 01:20:17;;;;;;;6.15;2.72;;;;;;;9.51;80.01;99679.95;1778344;79;20994;-44
2022/10/05 01:23:42;;;;;;;4.00;2.62;;;;;;;9.48;80.01;99682.56;1778305;79;21086;-44
2022/10/05 01:26:44;;;;;;;3.65;2.62;;;;;;;9.49;79.91;99692.23;1778353;80;20975;-44
2022/10/05 01:29:37;;;;;;;8.00;3.10;;;;;;;9.44;80.13;99692.51;1778268;79;21239;-44
2022/10/05 01:32:36;;;;;;;5.60;2.60;;;;;;;9.37;80.11;99691.73;1778211;80;21156;-44
2022/10/05 01:35:28;;;;;;;5.20;3.15;;;;;;;9.34;80.06;99688.93;1772927;80;20988;-44
2022/10/05 01:38:31;;;;;;;4.30;2.70;;;;;;;9.35;79.95;99704.80;1778598;80;20983;-44
2022/10/05 01:41:30;;;;;;;4.97;2.80;;;;;;;9.32;79.93;99699.30;1778359;80;21011;-44
2022/10/05 01:44:21;;;;;;;6.87;2.67;;;;;;;9.26;80.21;99706.06;1767723;80;21128;-44
2022/10/05 01:47:08;;;;;;;3.70;2.80;;;;;;;9.22;80.17;99711.37;1778521;79;20990;-44
2022/10/05 01:50:00;;;;;;;5.00;2.80;;;;;;;9.23;80.27;99714.88;1778537;80;21039;-44
2022/10/05 01:52:54;;;;;;;7.65;3.10;;;;;;;9.24;80.54;99721.87;1778628;79;21601;-44
2022/10/05 01:55:42;;;;;;;5.03;2.75;;;;;;;9.27;80.71;99727.94;1778690;80;21046;-44
2022/10/05 01:58:23;;;;;;;6.97;2.65;;;;;;;9.29;80.73;99729.75;1778549;80;21237;-44
2022/10/05 02:01:20;;;;;;;6.33;2.50;;;;;;;9.39;80.61;99740.10;1781467;79;21015;-44
2022/10/05 02:03:53;;;;;;;4.83;2.60;;;;;;;9.44;80.55;99740.63;1783707;80;21078;-44
2022/10/05 02:06:23;;;;;;;4.47;2.67;;;;;;;9.45;80.68;99748.19;1783312;79;21477;-44
2022/10/05 02:09:14;;;;;;;4.45;2.25;;;;;;;9.47;80.58;99750.00;1783930;80;21551;-44
2022/10/05 02:11:44;;;;;;;4.12;2.47;;;;;;;9.52;80.45;99755.17;1783743;80;21160;-44
2022/10/05 02:14:16;;;;;;;4.45;2.83;;;;;;;9.57;80.47;99757.64;1783742;79;21524;-44
2022/10/05 02:16:46;;;;;;;5.83;2.72;;;;;;;9.59;80.43;99762.92;1783938;79;21003;-44
2022/10/05 02:19:34;;;;;;;;;;;;;;;9.61;80.28;99759.88;1786635;80;21011;-44
2022/10/05 02:22:08;;;;;;;4.97;2.83;;;;;;;9.64;80.15;99765.16;1784057;79;20197;-44
2022/10/05 02:24:40;;;;;;;3.77;2.60;;;;;;;9.63;80.31;99768.45;1784097;79;21300;-44
2022/10/05 02:27:08;;;;;;;4.67;2.67;;;;;;;9.69;80.34;99775.19;1783615;79;21512;-44
2022/10/05 02:29:38;;;;;;;5.47;2.58;;;;;;;9.72;80.09;99778.58;1784135;79;21033;-44
2022/10/05 02:32:13;;;;;;;8.70;2.50;;;;;;;9.76;79.89;99776.75;1783758;79;21568;-44
2022/10/05 02:34:41;;;;;;;4.45;2.40;;;;;;;9.84;79.74;99778.53;1783801;79;21642;-44
2022/10/05 02:38:05;;;;;;;3.27;2.50;;;;;;;9.90;79.48;99766.33;1783847;80;21096;-44
2022/10/05 02:41:07;;;;;;;5.53;2.62;;;;;;;9.92;79.41;99769.45;1783551;80;20974;-44
2022/10/05 02:43:54;;;;;;;4.28;2.75;;;;;;;9.90;79.27;99766.33;1783962;80;21547;-44
2022/10/05 02:46:45;;;;;;;4.47;2.52;;;;;;;9.92;79.17;99764.04;1735265;82;22213;-44
2022/10/05 02:49:34;;;;;;;5.95;2.52;;;;;;;9.96;78.99;99764.95;1784052;80;21015;-44
2022/10/05 02:52:15;;;;;;;4.78;2.65;;;;;;;9.94;78.88;99760.44;1783706;79;21304;-44
2022/10/05 02:54:57;;;;;;;3.70;2.50;;;;;;;9.91;78.92;99758.43;1783928;79;20947;-44
2022/10/05 02:57:38;;;;;;;6.35;2.65;;;;;;;9.90;78.93;99760.91;1783516;80;21006;-44
2022/10/05 03:00:11;;;;;;;7.50;2.83;;;;;;;9.97;78.81;99765.75;1783829;79;21311;-44
2022/10/05 03:02:49;;;;;;;6.37;2.87;;;;;;;10.00;78.78;99766.39;1783890;79;21018;-44
2022/10/05 03:05:51;;;;;;;6.67;2.70;;;;;;;9.98;78.76;99772.15;1783767;80;21234;-44
2022/10/05 03:08:45;;;;;;;7.65;2.72;;;;;;;9.96;78.81;99781.20;1763903;80;20911;-44
2022/10/05 03:11:35;;;;;;;7.20;2.42;;;;;;;9.96;78.81;99785.83;1783851;80;20919;-44
2022/10/05 03:14:09;;;;;;;3.83;2.58;;;;;;;10.01;78.78;99792.36;1783746;79;20983;-44
2022/10/05 03:17:11;;;;;;;7.35;2.65;;;;;;;10.02;78.75;99797.41;1783889;80;21022;-44
2022/10/05 03:19:48;;;;;;;5.75;2.37;;;;;;;10.00;78.69;99796.98;1783618;80;23203;-44
2022/10/05 03:22:25;;;;;;;6.53;2.45;;;;;;;10.00;78.70;99796.98;1783702;80;20958;-44
2022/10/05 03:25:17;;;;;;;5.15;2.50;;;;;;;10.05;78.49;99804.08;1763769;80;20915;-44
2022/10/05 03:28:19;;;;;;;4.08;2.58;;;;;;;10.07;78.36;99800.44;1783709;79;21003;-44
2022/10/05 03:31:03;;;;;;;4.40;2.90;;;;;;;10.00;78.46;99808.38;1783746;80;21074;-44
2022/10/05 03:34:09;;;;;;;4.65;2.50;;;;;;;9.96;78.63;99815.63;1783824;79;21322;-44
2022/10/05 03:37:15;;;;;;;4.58;2.60;;;;;;;9.99;78.78;99821.13;1783728;80;20928;-44
2022/10/05 03:40:08;;;;;;;3.52;2.45;;;;;;;10.03;78.40;99815.80;1783819;80;20999;-44
2022/10/05 03:42:53;;;;;;;4.50;2.65;;;;;;;9.98;78.58;99816.84;1783856;79;21003;-44
2022/10/05 03:45:47;;;;;;;4.72;2.37;;;;;;;9.94;78.56;99809.19;1782898;80;21031;-44
2022/10/05 03:48:18;;;;;;;4.00;2.47;;;;;;;9.92;78.62;99815.50;1783795;80;21230;-44
2022/10/05 03:50:52;;;;;;;4.65;2.58;;;;;;;9.94;78.57;99813.25;1783708;79;20939;-44
2022/10/05 03:53:22;;;;;;;5.12;2.40;;;;;;;9.98;78.50;99814.70;1763887;80;20959;-44
2022/10/05 03:55:52;;;;;;;;;;;;;;;9.95;78.51;99820.81;1786433;80;20998;-44
2022/10/05 03:58:27;;;;;;;4.62;2.42;;;;;;;9.94;78.62;99811.89;1784080;80;20194;-44
2022/10/05 04:00:58;;;;;;;5.85;2.85;;;;;;;9.88;78.82;99819.23;1752574;80;23093;-44
2022/10/05 04:03:30;;;;;;;3.30;2.33;;;;;;;9.94;78.66;99824.08;1789738;79;21052;-44
2022/10/05 04:06:21;;;;;;;6.90;2.50;;;;;;;9.96;78.65;99827.81;1789705;79;21316;-44
2022/10/05 04:09:06;;;;;;;3.65;2.50;;;;;;;9.96;78.66;99824.54;1789663;79;20994;-44
2022/10/05 04:11:45;;;;;;;4.72;2.37;;;;;;;9.92;78.69;99826.33;1789785;80;21026;-44
2022/10/05 04:14:29;;;;;;;7.92;2.65;;;;;;;9.90;78.75;99829.97;1789671;80;21128;-44
2022/10/05 04:17:07;;;;;;;3.35;2.50;;;;;;;9.96;78.64;99832.66;1789463;80;20912;-44
2022/10/05 04:19:54;;;;;;;4.92;2.47;;;;;;;9.98;78.72;99831.73;1789707;79;20998;-44
2022/10/05 04:22:26;;;;;;;5.72;2.80;;;;;;;9.99;78.81;99827.11;1789686;80;20997;-44
2022/10/05 04:24:59;;;;;;;4.85;2.35;;;;;;;10.02;78.70;99839.39;1789675;79;21043;-44
2022/10/05 04:27:38;;;;;;;5.62;2.70;;;;;;;10.09;78.60;99851.01;1789629;79;21897;-44
2022/10/05 04:30:13;;;;;;;4.08;2.37;;;;;;;10.11;78.41;99848.76;1789906;79;21599;-44
2022/10/05 04:32:52;;;;;;;3.90;2.50;;;;;;;10.08;78.50;99848.63;1789857;80;21473;-44
2022/10/05 04:36:00;;;;;;;5.58;2.40;;;;;;;10.02;78.47;99849.47;1789975;80;21097;-44
2022/10/05 04:38:44;;;;;;;5.47;2.47;;;;;;;10.02;78.71;99858.36;1789714;79;21073;-44
2022/10/05 04:41:26;;;;;;;4.15;2.58;;;;;;;10.03;78.79;99862.65;1789413;79;21121;-44
2022/10/05 04:44:07;;;;;;;5.35;2.60;;;;;;;10.03;78.96;99873.48;1789665;80;21022;-44
2022/10/05 04:46:46;;;;;;;3.50;2.33;;;;;;;10.05;78.97;99867.73;1791476;79;21021;-44
2022/10/05 04:49:22;;;;;;;3.63;2.67;;;;;;;10.07;79.00;99872.81;1808272;79;20910;-43
2022/10/05 04:52:00;;;;;;;3.75;2.40;;;;;;;10.15;78.83;99882.72;1807893;79;21029;-44
2022/10/05 04:54:44;;;;;;;5.42;2.62;;;;;;;10.20;78.63;99891.42;1807992;79;23098;-44
2022/10/05 04:57:40;;;;;;;3.92;2.30;;;;;;;10.17;78.72;99895.37;1807824;78;21464;-44
2022/10/05 05:00:25;;;;;;;5.67;2.52;;;;;;;10.16;78.76;99901.94;1784481;79;21542;-44
2022/10/05 05:03:38;;;;;;;6.75;2.52;;;;;;;10.17;78.96;99908.91;1807918;79;21016;-44
2022/10/05 05:06:17;;;;;;;3.30;2.58;;;;;;;10.25;78.76;99913.42;1782907;79;21056;-44
2022/10/05 05:09:13;;;;;;;3.52;2.30;;;;;;;10.26;78.68;99916.36;1807989;79;21294;-44
2022/10/05 05:12:20;;;;;;;5.70;2.55;;;;;;;10.26;78.63;99919.84;1808234;78;21530;-44
2022/10/05 05:15:28;;;;;;;4.62;2.50;;;;;;;10.29;78.63;99912.95;1808087;79;20953;-44
2022/10/05 05:18:07;;;;;;;;;;;;;;;10.35;78.47;99912.38;1810791;79;20953;-44
2022/10/05 05:20:55;;;;;;;5.85;2.72;;;;;;;10.40;78.42;99915.41;1808004;79;20142;-44
2022/10/05 05:23:45;;;;;;;3.80;2.50;;;;;;;10.32;78.73;99917.68;1797353;79;21201;-44
2022/10/05 05:26:55;;;;;;;5.28;2.70;;;;;;;10.36;78.49;99917.23;1780181;79;21009;-43
2022/10/05 05:30:03;;;;;;;10.03;2.65;;;;;;;10.45;78.25;99923.30;1778898;79;21471;-43
2022/10/05 05:32:54;;;;;;;3.85;2.70;;;;;;;10.49;78.10;99924.75;1807992;78;21487;-42
2022/10/05 05:35:56;;;;;;;4.62;2.47;;;;;;;10.47;78.00;99922.38;1808152;79;21507;-43
2022/10/05 05:38:38;;;;;;;5.30;2.42;;;;;;;10.47;77.71;99925.09;1808026;79;21263;-43
2022/10/05 05:41:26;;;;;;;5.70;2.35;;;;;;;10.53;77.75;99930.49;1807972;79;20957;-43
2022/10/05 05:44:16;;;;;;;5.92;2.60;;;;;;;10.58;77.81;99930.25;1764760;79;21072;-42
2022/10/05 05:47:11;;;;;;;4.65;2.40;;;;;;;10.58;77.73;99939.73;1807680;79;20996;-42
2022/10/05 05:50:34;;;;;;;5.58;2.42;;;;;;;10.62;77.49;99931.69;1808013;79;21056;-43
2022/10/05 05:53:18;;;;;;;5.97;2.10;;;;;;;10.70;77.63;99947.02;1807927;79;21232;-43
2022/10/05 05:55:50;;;;;;;9.20;2.60;;;;;;;10.75;77.44;99946.20;1807788;79;20969;-44
2022/10/05 05:58:51;;;;;;;4.50;2.40;;;;;;;10.78;77.11;99949.60;1808073;78;20940;-44
2022/10/05 06:01:30;;;;;;;5.62;2.12;;;;;;;10.80;76.72;99959.52;1806318;79;21578;-44
2022/10/05 06:04:02;;;;;;;6.00;1.77;;;;;;;10.84;76.37;99952.86;1768780;79;21025;-44
2022/10/05 06:06:35;;;;;;;4.92;2.25;;;;;;;10.90;76.24;99959.59;1799630;78;21232;-44
2022/10/05 06:09:08;;;;;;;8.15;2.52;;;;;;;10.90;76.00;99959.02;1799443;79;21004;-44
2022/10/05 06:11:47;;;;;;;6.67;2.00;;;;;;;10.89;75.71;99965.58;1797881;79;21309;-44
2022/10/05 06:14:29;;;;;;;6.03;2.20;;;;;;;10.88;75.66;99972.72;1799621;79;21008;-44
2022/10/05 06:17:08;;;;;;;3.77;2.27;;;;;;;10.92;75.69;99974.96;1799607;79;21001;-44
2022/10/05 06:19:35;;;;;;;3.52;1.90;;;;;;;10.99;75.48;99977.09;1799549;79;23184;-44
2022/10/05 06:22:13;;;;;;;5.65;2.20;;;;;;;11.00;75.30;99980.00;1742945;79;21484;-44
2022/10/05 06:24:50;;;;;;;3.87;2.40;;;;;;;11.00;75.04;99983.50;1794559;78;21534;-44
2022/10/05 06:27:36;;;;;;;5.12;2.15;;;;;;;11.04;75.32;99980.88;1799638;79;21562;-44
2022/10/05 06:30:14;;;;;;;4.20;2.20;;;;;;;11.11;75.28;99990.58;1799617;79;21045;-44
2022/10/05 06:33:01;;;;;;;3.67;1.90;;;;;;;11.18;75.02;99992.90;1799195;79;21209;-44
2022/10/05 06:35:52;;;;;;;7.87;2.20;;;;;;;10.89;74.37;99953.37;1799291;79;20996;-44
2022/10/05 06:38:46;;;;;;;3.10;1.75;;;;;;;11.18;74.43;99994.85;1799346;78;20906;-44
2022/10/05 06:41:36;;;;;;;4.90;2.30;;;;;;;11.24;74.10;99992.08;1731299;82;21094;-44
2022/10/05 06:44:26;;;;;;;5.15;2.15;;;;;;;11.28;74.04;99993.75;1799423;79;21021;-44
2022/10/05 06:47:29;;;;;;;7.97;2.17;;;;;;;11.32;74.42;100001.44;1789606;79;21237;-44
2022/10/05 06:50:30;;;;;;;7.37;2.10;;;;;;;11.31;73.66;100001.78;1797541;79;21004;-44
2022/10/05 06:53:14;;;;;;;5.08;2.20;;;;;;;11.32;73.76;100006.08;1799254;78;21012;-44
2022/10/05 06:56:10;;;;;;;6.42;2.40;;;;;;;11.35;73.80;100002.66;1797860;79;20985;-44
2022/10/05 06:58:45;;;;;;;3.35;1.90;;;;;;;11.35;73.29;100012.16;1799633;78;20990;-44
2022/10/05 07:01:20;;;;;;;2.42;1.92;;;;;;;11.36;73.53;100006.95;1798836;78;21174;-44
2022/10/05 07:04:11;;;;;;;3.40;1.98;;;;;;;11.42;73.71;100015.07;1785809;79;21065;-44
2022/10/05 07:07:09;;;;;;;3.12;2.12;;;;;;;11.57;73.55;100013.50;1791236;79;20982;-44
2022/10/05 07:10:15;;;;;;;6.15;2.30;;;;;;;11.66;72.71;100012.20;1791145;80;21065;-44
2022/10/05 07:12:57;;;;;;;3.52;2.08;;;;;;;11.69;73.48;100014.77;1791193;79;21093;-44
2022/10/05 07:15:51;;;;;;;4.42;1.98;;;;;;;11.68;72.67;100024.84;1791288;79;21133;-44
2022/10/05 07:18:30;;;;;;;5.28;2.22;;;;;;;11.70;72.19;100028.57;1791186;79;20993;-44
2022/10/05 07:21:12;;;;;;;5.45;2.15;;;;;;;11.76;71.08;100036.72;1790973;79;20970;-44
2022/10/05 07:23:55;;;;;;;4.57;1.93;;;;;;;11.78;71.27;100039.06;1783264;80;21002;-44
2022/10/05 07:26:51;;;;;;;8.20;2.17;;;;;;;11.79;71.15;100047.44;1790929;79;22061;-44
2022/10/05 07:29:36;;;;;;;6.03;2.15;;;;;;;11.78;71.42;100045.85;1790906;79;23174;-44
2022/10/05 07:32:28;;;;;;;4.92;1.92;;;;;;;11.84;71.29;100056.69;1790813;80;20981;-44
2022/10/05 07:37:53;;;;;;;4.35;2.05;;;;;;;11.91;70.91;100064.42;1791139;80;20989;-44
2022/10/05 07:37:53;;;;;;;5.00;2.15;;;;;;;11.96;71.32;100064.73;1787972;80;21511;-44
2022/10/05 07:40:33;;;;;;;3.02;2.05;;;;;;;11.98;70.92;100074.13;1768971;80;21009;-44
2022/10/05 07:43:15;;;;;;;2.55;1.67;;;;;;;11.99;70.79;100076.28;1791256;79;21162;-44
2022/10/05 07:46:22;;;;;;;4.50;2.00;;;;;;;12.01;70.55;100075.34;1790662;79;20961;-44
2022/10/05 07:49:02;;;;;;;3.17;1.80;;;;;;;12.07;70.55;100065.78;1790996;80;21065;-44
2022/10/05 07:51:37;;;;;;;;;;;;;;;12.08;70.90;100073.59;1793677;80;21013;-44
2022/10/05 07:54:46;;;;;;;2.58;1.75;;;;;;;12.08;70.55;100070.87;1791070;80;20190;-44
2022/10/05 07:58:07;;;;;;;2.27;1.80;;;;;;;12.02;70.34;100074.20;1791613;80;21201;-44
2022/10/05 08:00:48;;;;;;;4.10;2.08;;;;;;;12.04;69.57;100075.45;1791112;80;21603;-44
2022/10/05 08:03:33;;;;;;;4.42;2.05;;;;;;;12.01;70.01;100057.11;1795534;79;20957;-44
2022/10/05 08:06:00;;;;;;;6.45;2.33;;;;;;;12.00;70.17;100061.55;1796082;79;21806;-44
2022/10/05 08:08:41;;;;;;;4.03;2.30;;;;;;;11.94;70.34;100054.23;1797265;79;21053;-44
2022/10/05 08:11:18;;;;;;;4.70;2.00;;;;;;;11.95;70.50;100060.46;1796653;79;23182;-44
2022/10/05 08:14:01;;;;;;;6.37;2.17;;;;;;;11.99;70.54;100058.05;1797066;79;21492;-44
2022/10/05 08:17:30;;;;;;;5.25;2.25;;;;;;;12.15;69.85;100063.48;1856171;76;22695;-44
2022/10/05 08:20:12;;;;;;;5.40;2.20;;;;;;;12.06;69.21;100071.79;1829707;78;21625;-44
2022/10/05 08:22:44;;;;;;;5.50;2.10;;;;;;;12.05;69.41;100072.16;1829608;78;21661;-44
2022/10/05 08:25:19;;;;;;;4.17;2.00;;;;;;;12.04;69.64;100084.16;1829214;78;21006;-44
2022/10/05 08:28:14;;;;;;;5.40;1.92;;;;;;;12.06;69.77;100081.30;1829462;78;21520;-44
2022/10/05 08:31:08;;;;;;;3.67;1.90;;;;;;;12.18;69.44;100077.14;1829508;78;20941;-44
2022/10/05 08:33:57;;;;;;;9.43;2.05;;;;;;;12.32;69.05;100080.76;1825862;78;20957;-44
2022/10/05 08:36:36;;;;;;;5.80;2.33;;;;;;;12.36;69.00;100081.63;1817304;78;21142;-44
2022/10/05 08:39:06;;;;;;;5.17;2.20;;;;;;;12.42;69.28;100095.17;1802601;78;21001;-44
2022/10/05 08:41:58;;;;;;;6.05;1.82;;;;;;;12.46;68.99;100094.68;1828593;78;21487;-44
2022/10/05 08:45:04;;;;;;;4.60;2.02;;;;;;;12.50;68.35;100100.20;1829262;78;21501;-44
2022/10/05 08:48:19;;;;;;;3.10;1.85;;;;;;;12.53;67.86;100098.14;1778539;78;21092;-44
2022/10/05 08:51:15;;;;;;;4.55;1.75;;;;;;;12.50;67.09;100106.99;1829620;78;21077;-44
2022/10/05 08:54:07;;;;;;;3.30;1.90;;;;;;;12.44;67.31;100118.70;1829420;78;20937;-44
2022/10/05 08:56:44;;;;;;;2.52;2.00;;;;;;;12.43;67.41;100119.88;1829375;78;21021;-44
2022/10/05 08:59:41;;;;;;;3.08;2.02;;;;;;;12.44;67.68;100113.27;1829148;78;21310;-44
2022/10/05 09:02:51;;;;;;;4.33;2.02;;;;;;;12.50;66.96;100121.39;1829225;78;22108;-44
2022/10/05 09:05:58;;;;;;;3.33;1.80;;;;;;;12.59;66.64;100108.95;1829723;78;21137;-44
2022/10/05 09:08:43;;;;;;;4.30;2.35;;;;;;;12.60;66.63;100110.53;1829347;78;21598;-44
2022/10/05 09:11:41;;;;;;;3.80;2.25;;;;;;;12.58;66.91;100104.67;1829296;78;20962;-44
2022/10/05 09:14:26;;;;;;;5.05;1.45;;;;;;;12.66;66.81;100107.76;1739256;78;21083;-44
2022/10/05 09:17:11;;;;;;;5.03;1.60;;;;;;;12.77;65.09;100099.27;1829305;78;21033;-44
2022/10/05 09:20:05;;;;;;;3.08;1.67;;;;;;;12.82;63.22;100096.84;1829294;78;21001;-44
2022/10/05 09:22:56;;;;;;;5.53;1.85;;;;;;;12.85;63.75;100092.03;1829181;78;21473;-44
2022/10/05 09:25:57;;;;;;;2.58;1.82;;;;;;;12.84;63.68;100109.50;1829154;78;21674;-44
2022/10/05 09:28:46;;;;;;;3.30;1.75;;;;;;;12.84;63.55;100114.94;1829113;78;20997;-44
2022/10/05 09:31:34;;;;;;;3.12;1.85;;;;;;;12.78;63.56;100114.42;1828953;78;20969;-44
2022/10/05 09:34:15;;;;;;;3.75;1.42;;;;;;;12.80;64.01;100105.92;1828750;78;21076;-44
2022/10/05 09:37:27;;;;;;;3.55;1.50;;;;;;;12.86;64.14;100108.59;1789694;78;21605;-44
2022/10/05 09:40:27;;;;;;;3.50;1.30;;;;;;;12.96;63.28;100113.47;1827625;78;20950;-44
2022/10/05 09:43:18;;;;;;;3.90;1.82;;;;;;;12.91;61.86;100109.66;1829035;78;20966;-44
2022/10/05 09:46:15;;;;;;;3.00;1.42;;;;;;;12.86;61.79;100109.38;1828813;78;21268;-44
2022/10/05 09:49:16;;;;;;;5.10;1.52;;;;;;;12.91;61.92;100109.66;1820800;78;23233;-44
2022/10/05 09:51:54;;;;;;;2.55;1.60;;;;;;;13.05;62.80;100110.75;1828645;78;20997;-44
2022/10/05 09:54:39;;;;;;;3.60;1.70;;;;;;;13.29;62.85;100104.27;1827343;78;21074;-44
2022/10/05 09:57:39;;;;;;;4.17;1.72;;;;;;;13.55;61.56;100102.81;1828492;78;20985;-44
2022/10/05 10:00:37;;;;;;;2.42;1.50;;;;;;;13.76;60.49;100108.06;1827612;78;21088;-44
2022/10/05 10:04:00;;;;;;;3.15;1.80;;;;;;;13.97;60.57;100106.29;1828706;78;22107;-44
2022/10/05 10:06:42;;;;;;;2.95;1.77;;;;;;;14.12;60.28;100108.68;1828685;78;20954;-44
2022/10/05 10:09:28;;;;;;;1.98;1.50;;;;;;;14.17;58.30;100102.34;1827595;78;20993;-44
2022/10/05 10:12:25;;;;;;;3.50;1.40;;;;;;;14.20;58.21;100103.55;1828805;78;21061;-44
2022/10/05 10:15:22;;;;;;;1.80;1.20;;;;;;;14.34;58.26;100107.28;1828651;78;21005;-44
2022/10/05 10:18:10;;;;;;;2.05;1.30;;;;;;;14.56;56.21;100115.26;1828827;78;21149;-44
2022/10/05 10:21:19;;;;;;;2.80;1.50;;;;;;;14.78;55.92;100116.34;1828935;78;21040;-44
2022/10/05 10:23:53;;;;;;;2.77;1.40;;;;;;;14.91;55.17;100119.05;1829098;78;20965;-44
2022/10/05 10:27:02;;;;;;;4.55;1.67;;;;;;;14.87;55.33;100112.75;1828843;78;21330;-44
2022/10/05 10:29:44;;;;;;;4.87;1.67;;;;;;;14.79;55.79;100111.88;1828947;78;21039;-44
2022/10/05 10:32:35;;;;;;;2.15;1.22;;;;;;;14.72;55.38;100124.05;1828781;78;21933;-44
2022/10/05 10:35:22;;;;;;;2.02;1.50;;;;;;;14.73;55.63;100119.38;1828522;78;21068;-44
2022/10/05 10:38:09;;;;;;;1.55;1.30;;;;;;;14.75;55.38;100117.09;1828647;78;21547;-44
2022/10/05 10:40:57;;;;;;;3.85;1.50;;;;;;;14.73;54.52;100121.54;1828514;78;21005;-44
2022/10/05 10:43:39;;;;;;;4.30;1.55;;;;;;;14.65;54.98;100125.91;1828596;78;20979;-45
2022/10/05 10:46:36;;;;;;;2.45;1.40;;;;;;;14.55;55.29;100137.45;1828632;78;21232;-44
2022/10/05 10:49:45;;;;;;;6.58;1.77;;;;;;;14.40;55.82;100123.38;1732661;78;21061;-45
2022/10/05 10:52:46;;;;;;;3.72;1.52;;;;;;;14.29;56.65;100119.86;1828596;78;20957;-44
2022/10/05 10:55:34;;;;;;;3.83;1.50;;;;;;;14.21;56.52;100124.22;1780583;78;21552;-45
2022/10/05 10:58:23;;;;;;;2.52;1.20;;;;;;;14.16;55.72;100120.43;1828777;78;21021;-44
2022/10/05 11:01:29;;;;;;;4.78;1.45;;;;;;;14.13;56.00;100121.95;1825470;78;21526;-44
2022/10/05 11:04:42;;;;;;;2.40;1.50;;;;;;;14.15;56.86;100127.82;1825412;78;21071;-44
2022/10/05 11:07:39;;;;;;;7.72;1.50;;;;;;;14.18;56.60;100134.50;1825395;78;20916;-44
2022/10/05 11:10:31;;;;;;;2.62;1.20;;;;;;;14.16;57.00;100119.86;1825116;78;20948;-45
2022/10/05 11:13:37;;;;;;;2.70;1.40;;;;;;;14.15;56.46;100118.27;1824638;78;21019;-44
2022/10/05 11:16:28;;;;;;;5.42;1.25;;;;;;;14.11;57.26;100113.34;1824903;78;23136;-45
2022/10/05 11:19:24;;;;;;;4.97;1.87;;;;;;;14.10;57.68;100115.85;1814636;78;20964;-44
2022/10/05 11:22:30;;;;;;;4.12;1.50;;;;;;;14.07;56.46;100115.23;1825094;78;21024;-44
2022/10/05 11:25:33;;;;;;;3.80;1.25;;;;;;;13.99;56.35;100112.15;1824995;78;21071;-44
2022/10/05 11:28:29;;;;;;;3.33;1.30;;;;;;;13.86;56.37;100117.58;1825043;78;21040;-44
2022/10/05 11:31:30;;;;;;;1.65;1.10;;;;;;;13.79;56.74;100112.02;1825068;78;21311;-44
2022/10/05 11:34:20;;;;;;;4.87;1.60;;;;;;;13.75;57.20;100114.66;1825151;78;21789;-44
2022/10/05 11:37:42;;;;;;;2.55;1.35;;;;;;;13.73;57.45;100116.18;1825003;78;21525;-44
2022/10/05 11:40:34;;;;;;;3.33;1.42;;;;;;;13.71;57.47;100109.72;1825461;78;20976;-44
2022/10/05 11:43:29;;;;;;;3.52;1.22;;;;;;;13.70;58.23;100112.83;1825094;78;20996;-44
2022/10/05 11:46:07;;;;;;;4.55;1.40;;;;;;;13.70;58.24;100117.67;1825534;78;21227;-45
2022/10/05 11:49:03;;;;;;;2.80;1.70;;;;;;;13.68;57.62;100124.66;1825310;78;20936;-44
2022/10/05 11:52:05;;;;;;;3.65;1.35;;;;;;;13.66;57.95;100124.21;1825095;77;21020;-44
2022/10/05 11:54:40;;;;;;;4.20;1.40;;;;;;;13.66;57.88;100136.47;1825041;78;21024;-44
2022/10/05 11:57:19;;;;;;;3.55;1.30;;;;;;;13.63;57.88;100135.84;1759994;78;21585;-44
2022/10/05 12:00:07;;;;;;;3.27;1.40;;;;;;;13.63;58.15;100142.66;1812592;78;21568;-44
2022/10/05 12:02:56;;;;;;;2.47;1.40;;;;;;;13.61;58.49;100145.73;1825126;78;21492;-44
2022/10/05 12:06:08;;;;;;;1.67;1.37;;;;;;;13.59;58.74;100142.59;1824815;78;20959;-44
2022/10/05 12:08:40;;;;;;;4.17;1.47;;;;;;;13.58;58.61;100141.58;1825182;78;21011;-44
2022/10/05 12:11:58;;;;;;;3.65;1.60;;;;;;;13.57;58.46;100144.09;1825067;78;20917;-45
2022/10/05 12:14:45;;;;;;;2.42;1.45;;;;;;;13.58;58.99;100151.12;1825080;78;21226;-44
2022/10/05 12:17:38;;;;;;;3.27;1.30;;;;;;;13.55;58.95;100151.84;1819600;78;21019;-44
2022/10/05 12:20:16;;;;;;;3.83;1.52;;;;;;;13.53;58.58;100166.39;1811001;78;21002;-44
2022/10/05 12:22:51;;;;;;;2.37;1.52;;;;;;;13.51;58.89;100161.30;1825272;78;20984;-44
2022/10/05 12:25:33;;;;;;;2.67;1.50;;;;;;;13.49;58.76;100158.95;1825299;78;20996;-44
2022/10/05 12:28:14;;;;;;;2.27;1.30;;;;;;;13.51;59.23;100160.53;1825127;78;21236;-45
2022/10/05 12:30:57;;;;;;;2.22;1.35;;;;;;;13.50;59.20;100162.46;1825317;78;21495;-44
2022/10/05 12:33:28;;;;;;;2.72;1.20;;;;;;;13.51;59.51;100169.47;1824255;78;21005;-44
2022/10/05 12:36:03;;;;;;;2.75;1.40;;;;;;;13.51;59.32;100172.19;1825235;78;21621;-44
2022/10/05 12:38:44;;;;;;;1.82;1.10;;;;;;;13.57;59.29;100169.40;1824767;78;21028;-44
2022/10/05 12:41:28;;;;;;;3.72;1.30;;;;;;;13.67;58.95;100181.66;1818947;78;26552;-45
2022/10/05 12:44:53;;;;;;;2.80;1.50;;;;;;;13.77;58.92;100168.23;1824973;78;21441;-44
2022/10/05 12:48:01;;;;;;;3.70;1.30;;;;;;;13.82;58.52;100171.23;1825132;78;20955;-44
2022/10/05 12:50:36;;;;;;;5.00;1.75;;;;;;;13.85;58.82;100157.67;1770692;78;21003;-45
2022/10/05 12:53:47;;;;;;;3.70;1.60;;;;;;;13.88;58.61;100162.98;1824440;78;21467;-45
2022/10/05 12:56:44;;;;;;;2.62;1.32;;;;;;;13.92;58.77;100163.27;1824978;78;21243;-44
2022/10/05 12:59:19;;;;;;;2.15;1.50;;;;;;;13.98;58.86;100163.77;1824934;78;20951;-45
2022/10/05 13:02:29;;;;;;;3.35;1.80;;;;;;;14.00;58.27;100164.74;1825287;78;21558;-44
2022/10/05 13:05:20;;;;;;;3.05;1.55;;;;;;;14.00;58.53;100162.02;1825597;78;21555;-44
2022/10/05 13:08:01;;;;;;;3.10;1.60;;;;;;;14.00;58.30;100166.10;1825639;78;21545;-45
2022/10/05 13:10:42;;;;;;;3.98;1.80;;;;;;;13.97;58.47;100166.84;1825249;78;21133;-44